Time;durP1;ratioP1;P1;durP2;ratioP2;P2;SDS_P1;SDS_P2;PMS_P1;PMS_P2;Temp;Humidity;BMP_temperature;BMP_pressure;BME280_temperature;BME280_humidity;BME280_pressure;Samples;Min_cycle;Max_cycle;Signal;HPM_P1;HPM_P2
2023/10/15 00:00:00;;;;;;;16.20;13.53;;;20.60;64.10;;;;;;349858;28;914;-60
2023/10/15 00:00:18;;;;;;;16.08;13.63;;;20.70;64.10;;;;;;349901;28;948;-60
2023/10/15 00:00:29;;;;;;;15.00;12.95;;;20.70;64.10;;;;;;349897;28;845;-59
2023/10/15 00:00:40;;;;;;;15.32;13.02;;;20.70;64.10;;;;;;349867;28;1074;-59
2023/10/15 00:00:51;;;;;;;15.87;13.27;;;20.70;64.10;;;;;;349823;28;1007;-58
2023/10/15 00:01:05;;;;;;;17.95;13.85;;;20.70;64.10;;;;;;349881;28;992;-59
2023/10/15 00:01:16;;;;;;;17.98;14.32;;;20.70;64.10;;;;;;349869;28;1014;-59
2023/10/15 00:01:26;;;;;;;17.83;14.50;;;20.70;64.00;;;;;;349890;28;1102;-60
2023/10/15 00:01:37;;;;;;;16.43;13.97;;;20.70;64.10;;;;;;349862;28;1003;-59
2023/10/15 00:01:48;;;;;;;17.38;13.75;;;20.60;64.10;;;;;;349767;28;1757;-59
2023/10/15 00:01:59;;;;;;;17.23;13.43;;;20.70;64.10;;;;;;349867;28;1000;-59
2023/10/15 00:02:09;;;;;;;17.37;13.47;;;20.70;64.10;;;;;;349842;28;1086;-59
2023/10/15 00:02:20;;;;;;;16.63;13.52;;;20.70;64.10;;;;;;349777;28;1517;-59
2023/10/15 00:02:31;;;;;;;16.23;13.27;;;20.70;64.10;;;;;;349851;28;1127;-59
2023/10/15 00:02:43;;;;;;;16.08;12.98;;;20.70;64.10;;;;;;349823;28;1042;-59
2023/10/15 00:02:54;;;;;;;15.40;12.73;;;20.70;64.10;;;;;;349740;28;1430;-59
2023/10/15 00:03:07;;;;;;;15.32;13.05;;;20.70;64.10;;;;;;349840;28;1391;-59
2023/10/15 00:03:17;;;;;;;16.80;13.50;;;20.70;64.10;;;;;;349814;28;1066;-59
2023/10/15 00:03:28;;;;;;;16.90;13.60;;;20.60;64.10;;;;;;349837;28;1145;-59
2023/10/15 00:03:39;;;;;;;17.00;13.63;;;20.70;64.10;;;;;;349813;28;1476;-59
2023/10/15 00:03:49;;;;;;;17.60;13.55;;;20.60;64.10;;;;;;349898;28;1020;-59
2023/10/15 00:04:02;;;;;;;16.48;13.25;;;20.70;64.20;;;;;;349820;28;1743;-60
2023/10/15 00:04:13;;;;;;;15.48;13.10;;;20.70;64.10;;;;;;349805;28;1098;-59
2023/10/15 00:04:23;;;;;;;15.07;13.30;;;20.70;64.10;;;;;;349865;28;1083;-59
2023/10/15 00:04:35;;;;;;;15.65;13.48;;;20.70;64.10;;;;;;349822;28;1033;-59
2023/10/15 00:04:45;;;;;;;18.13;13.40;;;20.60;64.10;;;;;;349857;28;1488;-59
2023/10/15 00:04:56;;;;;;;19.17;13.43;;;20.60;64.10;;;;;;349939;28;833;-58
2023/10/15 00:05:08;;;;;;;17.00;13.23;;;20.60;64.10;;;;;;349835;28;910;-60
2023/10/15 00:05:21;;;;;;;16.30;13.57;;;20.60;64.10;;;;;;349890;28;931;-59
2023/10/15 00:05:32;;;;;;;16.52;13.60;;;20.60;64.10;;;;;;349774;28;1182;-59
2023/10/15 00:05:46;;;;;;;16.67;13.55;;;20.60;64.10;;;;;;349857;28;1225;-59
2023/10/15 00:05:56;;;;;;;16.80;13.38;;;20.60;64.10;;;;;;349945;28;1019;-59
2023/10/15 00:06:08;;;;;;;17.45;13.43;;;20.60;64.20;;;;;;349814;28;1098;-58
2023/10/15 00:06:19;;;;;;;18.77;13.80;;;20.60;64.20;;;;;;349829;28;988;-59
2023/10/15 00:06:30;;;;;;;17.83;14.20;;;20.60;64.20;;;;;;349846;28;1282;-59
2023/10/15 00:06:40;;;;;;;18.38;14.27;;;20.60;64.20;;;;;;349898;28;964;-58
2023/10/15 00:06:52;;;;;;;16.63;13.60;;;20.60;64.20;;;;;;349778;28;1015;-59
2023/10/15 00:07:05;;;;;;;16.52;13.30;;;20.60;64.20;;;;;;349811;28;1118;-59
2023/10/15 00:07:16;;;;;;;17.13;13.43;;;20.60;64.20;;;;;;349881;28;1129;-58
2023/10/15 00:07:27;;;;;;;17.00;13.65;;;20.60;64.20;;;;;;349737;28;1158;-58
2023/10/15 00:07:38;;;;;;;15.82;13.82;;;20.60;64.30;;;;;;349888;28;856;-58
2023/10/15 00:07:50;;;;;;;15.82;13.88;;;20.60;64.20;;;;;;349963;28;917;-58
2023/10/15 00:08:01;;;;;;;15.35;13.75;;;20.60;64.20;;;;;;349890;28;1027;-59
2023/10/15 00:08:11;;;;;;;15.43;13.77;;;20.60;64.20;;;;;;349781;28;1598;-59
2023/10/15 00:08:22;;;;;;;16.00;13.90;;;20.60;64.20;;;;;;349814;28;1650;-58
2023/10/15 00:08:33;;;;;;;16.88;14.13;;;20.60;64.30;;;;;;349975;28;964;-59
2023/10/15 00:08:43;;;;;;;17.65;14.00;;;20.60;64.20;;;;;;349858;28;992;-59
2023/10/15 00:08:54;;;;;;;17.00;13.73;;;20.60;64.20;;;;;;349819;28;1768;-59
2023/10/15 00:09:05;;;;;;;16.42;13.82;;;20.60;64.20;;;;;;349858;28;1063;-59
2023/10/15 00:09:16;;;;;;;16.70;13.93;;;20.50;64.20;;;;;;349914;28;992;-59
2023/10/15 00:09:30;;;;;;;17.56;14.16;;;20.60;64.20;;;;;;349813;28;1177;-59
2023/10/15 00:09:41;;;;;;;17.05;14.32;;;20.60;64.20;;;;;;349748;28;1115;-59
2023/10/15 00:09:52;;;;;;;16.55;14.35;;;20.60;64.20;;;;;;349906;28;1113;-58
2023/10/15 00:10:12;;;;;;;16.20;14.40;;;20.60;64.20;;;;;;349932;28;983;-58
2023/10/15 00:10:27;;;;;;;15.43;13.48;;;20.60;64.20;;;;;;349871;28;999;-59
2023/10/15 00:10:38;;;;;;;15.43;13.38;;;20.60;64.20;;;;;;349792;28;1198;-58
2023/10/15 00:10:49;;;;;;;15.37;13.33;;;20.60;64.20;;;;;;349876;28;1095;-60
2023/10/15 00:11:00;;;;;;;17.52;13.30;;;20.60;64.20;;;;;;349828;28;1058;-60
2023/10/15 00:11:14;;;;;;;17.48;13.20;;;20.60;64.20;;;;;;349868;28;1074;-60
2023/10/15 00:11:25;;;;;;;18.35;13.65;;;20.60;64.20;;;;;;349835;28;988;-59
2023/10/15 00:11:36;;;;;;;17.88;13.95;;;20.60;64.20;;;;;;349783;28;1043;-58
2023/10/15 00:11:47;;;;;;;18.15;13.82;;;20.60;64.20;;;;;;349887;28;1063;-59
2023/10/15 00:11:59;;;;;;;17.35;13.55;;;20.60;64.20;;;;;;349800;28;1594;-59
2023/10/15 00:12:09;;;;;;;16.20;13.20;;;20.50;64.20;;;;;;349767;28;1134;-59
2023/10/15 00:12:20;;;;;;;17.25;13.30;;;20.50;64.20;;;;;;349895;28;825;-59
2023/10/15 00:12:31;;;;;;;17.10;13.35;;;20.60;64.20;;;;;;349890;28;1258;-58
2023/10/15 00:12:45;;;;;;;17.57;13.43;;;20.50;64.10;;;;;;349792;28;1046;-58
2023/10/15 00:12:57;;;;;;;16.08;13.45;;;20.50;64.20;;;;;;349895;28;949;-59
2023/10/15 00:13:08;;;;;;;15.75;13.90;;;20.50;64.20;;;;;;349863;28;991;-58
2023/10/15 00:13:18;;;;;;;15.67;13.47;;;20.50;64.20;;;;;;349747;28;1122;-59
2023/10/15 00:13:29;;;;;;;15.52;13.23;;;20.60;64.20;;;;;;349902;28;976;-58
2023/10/15 00:13:40;;;;;;;16.02;13.35;;;20.50;64.30;;;;;;349844;28;1145;-58
2023/10/15 00:13:51;;;;;;;16.80;13.77;;;20.50;64.20;;;;;;349768;28;1019;-58
2023/10/15 00:14:04;;;;;;;17.20;13.63;;;20.60;64.20;;;;;;349878;28;971;-58
2023/10/15 00:14:15;;;;;;;17.23;13.70;;;20.50;64.20;;;;;;349865;28;1059;-59
2023/10/15 00:14:26;;;;;;;16.67;13.73;;;20.50;64.20;;;;;;349776;28;983;-60
2023/10/15 00:14:37;;;;;;;15.20;13.55;;;20.50;64.20;;;;;;349914;28;821;-59
2023/10/15 00:14:47;;;;;;;15.30;13.20;;;20.50;64.10;;;;;;349736;28;1902;-59
2023/10/15 00:14:58;;;;;;;15.30;13.00;;;20.50;64.10;;;;;;349725;28;1371;-59
2023/10/15 00:15:20;;;;;;;16.45;13.23;;;20.50;64.10;;;;;;349890;28;1090;-59
2023/10/15 00:15:31;;;;;;;16.67;13.57;;;20.50;64.10;;;;;;349772;28;1030;-59
2023/10/15 00:15:43;;;;;;;15.63;13.18;;;20.50;64.20;;;;;;349839;28;1002;-59
2023/10/15 00:15:56;;;;;;;16.35;13.13;;;20.50;64.20;;;;;;349877;28;1085;-58
2023/10/15 00:16:07;;;;;;;17.05;13.45;;;20.50;64.30;;;;;;349712;28;1718;-58
2023/10/15 00:16:20;;;;;;;17.58;13.50;;;20.50;64.30;;;;;;349865;28;1003;-58
2023/10/15 00:16:32;;;;;;;16.33;13.15;;;20.50;64.30;;;;;;349800;28;941;-60
2023/10/15 00:16:43;;;;;;;14.52;12.75;;;20.50;64.30;;;;;;349832;28;1162;-58
2023/10/15 00:16:54;;;;;;;14.10;12.65;;;20.50;64.30;;;;;;349830;28;1031;-59
2023/10/15 00:17:05;;;;;;;14.32;12.77;;;20.50;64.30;;;;;;349920;28;1030;-58
2023/10/15 00:17:16;;;;;;;14.65;12.73;;;20.50;64.30;;;;;;349824;28;1189;-58
2023/10/15 00:17:27;;;;;;;14.95;13.35;;;20.50;64.30;;;;;;349777;28;1094;-58
2023/10/15 00:17:38;;;;;;;15.25;13.40;;;20.50;64.30;;;;;;349795;28;1185;-58
2023/10/15 00:17:51;;;;;;;16.70;13.90;;;20.50;64.30;;;;;;349796;28;1547;-58
2023/10/15 00:18:06;;;;;;;17.20;13.52;;;20.40;64.30;;;;;;349793;28;1062;-58
2023/10/15 00:18:17;;;;;;;17.70;13.13;;;20.40;64.20;;;;;;349817;28;1134;-59
2023/10/15 00:18:27;;;;;;;17.37;13.33;;;20.50;64.20;;;;;;349831;28;1064;-59
2023/10/15 00:18:40;;;;;;;17.67;13.85;;;20.50;64.20;;;;;;349860;28;999;-60
2023/10/15 00:18:50;;;;;;;17.17;13.90;;;20.40;64.20;;;;;;349845;28;1031;-59
2023/10/15 00:19:10;;;;;;;16.70;13.50;;;20.50;64.20;;;;;;349765;28;1038;-58
2023/10/15 00:19:21;;;;;;;16.30;13.35;;;20.50;64.10;;;;;;349822;28;1830;-58
2023/10/15 00:19:32;;;;;;;17.03;13.93;;;20.40;64.20;;;;;;349789;28;1335;-58
2023/10/15 00:19:43;;;;;;;16.58;13.75;;;20.50;64.20;;;;;;349834;28;1039;-58
2023/10/15 00:19:55;;;;;;;17.67;13.57;;;20.40;64.20;;;;;;349879;28;1090;-57
2023/10/15 00:20:10;;;;;;;17.88;13.30;;;20.40;64.20;;;;;;349749;28;1086;-58
2023/10/15 00:20:31;;;;;;;16.30;13.30;;;20.40;64.20;;;;;;349831;28;1094;-57
2023/10/15 00:20:42;;;;;;;15.27;13.68;;;20.40;64.20;;;;;;349805;28;1043;-58
2023/10/15 00:20:54;;;;;;;15.40;13.80;;;20.40;64.20;;;;;;349850;28;2375;-58
2023/10/15 00:21:12;;;;;;;14.85;13.27;;;20.40;64.10;;;;;;349816;28;1061;-58
2023/10/15 00:21:22;;;;;;;17.65;13.23;;;20.40;64.10;;;;;;349799;28;1142;-59
2023/10/15 00:21:33;;;;;;;19.53;13.83;;;20.40;64.20;;;;;;349795;28;1090;-59
2023/10/15 00:21:44;;;;;;;19.65;14.05;;;20.40;64.10;;;;;;349853;28;1464;-59
2023/10/15 00:21:55;;;;;;;17.17;13.93;;;20.40;64.10;;;;;;349901;28;987;-57
2023/10/15 00:22:07;;;;;;;15.88;13.57;;;20.40;64.10;;;;;;349760;28;981;-58
2023/10/15 00:22:18;;;;;;;15.95;13.50;;;20.40;64.20;;;;;;349835;28;1281;-58
2023/10/15 00:22:29;;;;;;;15.60;13.23;;;20.40;64.20;;;;;;349817;28;1009;-59
2023/10/15 00:22:42;;;;;;;16.20;13.38;;;20.40;64.20;;;;;;349865;28;1090;-58
2023/10/15 00:22:53;;;;;;;15.68;13.05;;;20.40;64.20;;;;;;349787;28;1148;-58
2023/10/15 00:23:04;;;;;;;15.93;13.23;;;20.40;64.20;;;;;;349865;28;1871;-58
2023/10/15 00:23:15;;;;;;;15.82;13.18;;;20.40;64.20;;;;;;349822;28;1101;-59
2023/10/15 00:23:26;;;;;;;17.95;13.88;;;20.40;64.20;;;;;;349869;28;884;-58
2023/10/15 00:23:36;;;;;;;18.55;14.27;;;20.40;64.20;;;;;;349880;28;955;-59
2023/10/15 00:23:47;;;;;;;18.27;13.85;;;20.40;64.20;;;;;;349791;28;1003;-59
2023/10/15 00:23:59;;;;;;;18.58;13.65;;;20.40;64.20;;;;;;349893;28;2469;-59
2023/10/15 00:24:10;;;;;;;18.73;13.73;;;20.40;64.20;;;;;;349771;28;1008;-59
2023/10/15 00:24:21;;;;;;;19.45;13.80;;;20.30;64.20;;;;;;349865;28;1019;-58
2023/10/15 00:24:32;;;;;;;17.40;13.50;;;20.30;64.20;;;;;;349895;28;967;-58
2023/10/15 00:24:42;;;;;;;16.92;13.35;;;20.40;64.20;;;;;;349713;28;1037;-58
2023/10/15 00:24:53;;;;;;;16.58;13.65;;;20.40;64.20;;;;;;349797;28;1601;-59
2023/10/15 00:25:09;;;;;;;15.82;13.30;;;20.40;64.30;;;;;;349907;28;987;-59
2023/10/15 00:25:19;;;;;;;15.07;12.80;;;20.30;64.30;;;;;;349770;28;892;-59
2023/10/15 00:25:34;;;;;;;14.50;12.73;;;20.40;64.20;;;;;;349897;28;880;-60
2023/10/15 00:25:48;;;;;;;16.98;12.88;;;20.30;64.20;;;;;;349791;28;936;-58
2023/10/15 00:25:59;;;;;;;16.98;12.77;;;20.40;64.20;;;;;;349795;28;1118;-58
2023/10/15 00:26:16;;;;;;;16.38;12.73;;;20.30;64.20;;;;;;349717;28;1138;-59
2023/10/15 00:26:27;;;;;;;17.38;13.23;;;20.30;64.20;;;;;;349737;28;963;-58
2023/10/15 00:26:38;;;;;;;18.70;13.67;;;20.30;64.20;;;;;;349602;28;1147;-59
2023/10/15 00:26:49;;;;;;;18.50;13.77;;;20.30;64.20;;;;;;349759;28;888;-59
2023/10/15 00:27:00;;;;;;;16.15;13.48;;;20.30;64.20;;;;;;349688;28;1128;-59
2023/10/15 00:27:10;;;;;;;17.02;13.13;;;20.30;64.20;;;;;;349747;28;1059;-59
2023/10/15 00:27:21;;;;;;;16.70;13.20;;;20.30;64.20;;;;;;349614;28;999;-59
2023/10/15 00:27:32;;;;;;;17.25;13.18;;;20.30;64.20;;;;;;349747;28;1007;-58
2023/10/15 00:27:52;;;;;;;16.83;13.23;;;20.30;64.20;;;;;;349640;28;987;-58
2023/10/15 00:28:05;;;;;;;17.50;13.73;;;20.30;64.20;;;;;;349645;28;1354;-58
2023/10/15 00:28:16;;;;;;;17.17;13.70;;;20.30;64.20;;;;;;349605;28;1018;-59
2023/10/15 00:28:29;;;;;;;18.73;14.03;;;20.30;64.20;;;;;;349845;28;849;-58
2023/10/15 00:28:40;;;;;;;17.63;14.00;;;20.30;64.20;;;;;;349829;28;1024;-59
2023/10/15 00:28:54;;;;;;;15.63;13.77;;;20.30;64.20;;;;;;349831;28;1043;-59
2023/10/15 00:29:08;;;;;;;17.15;13.73;;;20.30;64.20;;;;;;349768;28;1118;-58
2023/10/15 00:29:19;;;;;;;17.92;13.65;;;20.30;64.20;;;;;;349844;28;1051;-58
2023/10/15 00:29:29;;;;;;;17.27;13.43;;;20.30;64.20;;;;;;349754;28;1145;-58
2023/10/15 00:29:41;;;;;;;17.17;13.38;;;20.30;64.20;;;;;;349922;28;829;-58
2023/10/15 00:29:51;;;;;;;17.08;13.40;;;20.30;64.20;;;;;;349661;28;1212;-58
2023/10/15 00:30:12;;;;;;;16.98;13.77;;;20.30;64.20;;;;;;349869;28;1066;-59
2023/10/15 00:30:31;;;;;;;15.57;13.63;;;20.30;64.20;;;;;;349796;28;888;-58
2023/10/15 00:30:44;;;;;;;15.07;13.35;;;20.30;64.20;;;;;;349768;28;826;-58
2023/10/15 00:30:55;;;;;;;14.90;13.25;;;20.30;64.20;;;;;;349776;28;1384;-58
2023/10/15 00:31:10;;;;;;;17.33;13.73;;;20.30;64.20;;;;;;349802;28;979;-59
2023/10/15 00:31:20;;;;;;;18.35;13.80;;;20.30;64.20;;;;;;349786;28;1221;-59
2023/10/15 00:31:31;;;;;;;16.15;13.32;;;20.30;64.20;;;;;;349797;28;1174;-59
2023/10/15 00:31:42;;;;;;;15.90;13.23;;;20.30;64.20;;;;;;349820;28;1078;-59
2023/10/15 00:31:54;;;;;;;15.48;13.52;;;20.30;64.10;;;;;;349863;28;1074;-59
2023/10/15 00:32:05;;;;;;;17.33;13.90;;;20.20;64.00;;;;;;349807;28;934;-59
2023/10/15 00:32:16;;;;;;;16.63;13.75;;;20.30;64.00;;;;;;349877;28;972;-59
2023/10/15 00:32:29;;;;;;;17.05;13.30;;;20.30;64.00;;;;;;349841;28;1070;-60
2023/10/15 00:32:44;;;;;;;16.80;13.20;;;20.30;64.00;;;;;;349740;28;1226;-60
2023/10/15 00:32:56;;;;;;;18.17;13.55;;;20.30;64.10;;;;;;349820;28;1599;-59
2023/10/15 00:33:06;;;;;;;18.35;14.02;;;20.30;64.10;;;;;;349762;28;1551;-59
2023/10/15 00:33:18;;;;;;;19.23;14.02;;;20.20;64.20;;;;;;349819;28;1357;-59
2023/10/15 00:33:30;;;;;;;19.42;14.15;;;20.20;64.20;;;;;;349845;28;943;-59
2023/10/15 00:33:47;;;;;;;18.80;13.80;;;20.20;64.10;;;;;;349754;28;1037;-58
2023/10/15 00:33:58;;;;;;;15.88;13.68;;;20.20;64.20;;;;;;349659;28;1313;-58
2023/10/15 00:34:12;;;;;;;16.00;13.40;;;20.20;64.10;;;;;;349751;28;979;-62
2023/10/15 00:34:23;;;;;;;15.23;13.00;;;20.20;64.10;;;;;;349835;28;1027;-59
2023/10/15 00:34:33;;;;;;;16.15;13.57;;;20.30;64.10;;;;;;349807;28;1015;-59
2023/10/15 00:34:47;;;;;;;16.65;14.05;;;20.20;64.00;;;;;;349706;28;1906;-59
2023/10/15 00:34:59;;;;;;;20.05;14.52;;;20.20;64.10;;;;;;349797;28;980;-59
2023/10/15 00:35:11;;;;;;;20.27;14.27;;;20.20;64.10;;;;;;349849;28;833;-59
2023/10/15 00:35:25;;;;;;;19.08;14.13;;;20.20;64.20;;;;;;349728;28;1070;-58
2023/10/15 00:35:35;;;;;;;17.70;14.32;;;20.20;64.20;;;;;;349701;28;1126;-58
2023/10/15 00:35:49;;;;;;;17.40;14.50;;;20.20;64.20;;;;;;349900;28;805;-59
2023/10/15 00:36:00;;;;;;;17.77;14.30;;;20.20;64.20;;;;;;349848;28;1015;-58
2023/10/15 00:36:13;;;;;;;16.92;14.38;;;20.20;64.20;;;;;;349891;28;809;-59
2023/10/15 00:36:24;;;;;;;16.10;14.35;;;20.20;64.20;;;;;;349725;28;1135;-59
2023/10/15 00:36:34;;;;;;;17.43;15.30;;;20.20;64.20;;;;;;349880;28;892;-58
2023/10/15 00:36:48;;;;;;;19.60;16.95;;;20.20;64.30;;;;;;349824;28;860;-57
2023/10/15 00:37:01;;;;;;;20.13;17.67;;;20.20;64.20;;;;;;349870;28;1047;-58
2023/10/15 00:37:13;;;;;;;17.88;15.88;;;20.20;64.30;;;;;;349773;28;1024;-59
2023/10/15 00:37:24;;;;;;;20.08;14.90;;;20.20;64.30;;;;;;349833;28;988;-58
2023/10/15 00:37:40;;;;;;;20.38;14.85;;;20.20;64.30;;;;;;349832;28;1035;-58
2023/10/15 00:37:57;;;;;;;18.40;14.07;;;20.20;64.30;;;;;;349821;28;1004;-58
2023/10/15 00:38:11;;;;;;;17.80;13.68;;;20.20;64.30;;;;;;349820;28;1102;-58
2023/10/15 00:38:24;;;;;;;16.38;13.65;;;20.20;64.40;;;;;;349829;28;912;-57
2023/10/15 00:38:36;;;;;;;15.63;13.88;;;20.20;64.40;;;;;;349887;28;861;-58
2023/10/15 00:38:47;;;;;;;15.55;13.70;;;20.20;64.50;;;;;;349732;28;901;-59
2023/10/15 00:38:58;;;;;;;16.58;14.10;;;20.20;64.50;;;;;;349871;28;904;-58
2023/10/15 00:39:12;;;;;;;19.10;14.43;;;20.20;64.50;;;;;;349818;28;1111;-59
2023/10/15 00:39:23;;;;;;;21.13;14.93;;;20.10;64.50;;;;;;349841;28;1113;-58
2023/10/15 00:39:41;;;;;;;19.35;14.50;;;20.20;64.60;;;;;;349787;28;1177;-59
2023/10/15 00:39:52;;;;;;;16.67;14.05;;;20.10;64.60;;;;;;349773;28;1074;-58
2023/10/15 00:40:04;;;;;;;16.05;13.73;;;20.20;64.60;;;;;;349851;28;1054;-59
2023/10/15 00:40:18;;;;;;;15.80;14.07;;;20.10;64.60;;;;;;349754;28;1702;-59
2023/10/15 00:40:28;;;;;;;16.42;14.35;;;20.10;64.60;;;;;;349768;28;1016;-58
2023/10/15 00:40:41;;;;;;;16.20;14.18;;;20.10;64.60;;;;;;349802;28;1086;-60
2023/10/15 00:41:00;;;;;;;15.75;13.70;;;20.20;64.60;;;;;;349740;28;1189;-59
2023/10/15 00:41:14;;;;;;;15.75;13.65;;;20.10;64.50;;;;;;349794;28;1131;-59
2023/10/15 00:41:25;;;;;;;15.50;13.18;;;20.10;64.40;;;;;;349716;28;1031;-59
2023/10/15 00:41:36;;;;;;;15.70;12.82;;;20.10;64.40;;;;;;349820;28;1071;-58
2023/10/15 00:41:47;;;;;;;17.45;13.80;;;20.10;64.40;;;;;;349858;28;832;-59
2023/10/15 00:41:58;;;;;;;16.45;13.65;;;20.20;64.40;;;;;;349815;28;1008;-59
2023/10/15 00:42:09;;;;;;;15.87;13.57;;;20.10;64.40;;;;;;349894;28;1093;-59
2023/10/15 00:42:22;;;;;;;15.52;12.77;;;20.10;64.40;;;;;;349734;28;1142;-59
2023/10/15 00:42:33;;;;;;;16.73;13.48;;;20.10;64.40;;;;;;349871;28;1078;-58
2023/10/15 00:42:47;;;;;;;16.67;13.57;;;20.10;64.30;;;;;;349804;28;996;-59
2023/10/15 00:42:57;;;;;;;15.70;13.52;;;20.10;64.30;;;;;;349765;28;996;-59
2023/10/15 00:43:09;;;;;;;15.57;13.52;;;20.10;64.30;;;;;;349864;28;1070;-59
2023/10/15 00:43:21;;;;;;;16.10;13.73;;;20.10;64.20;;;;;;349728;28;999;-59
2023/10/15 00:43:31;;;;;;;16.25;13.68;;;20.10;64.10;;;;;;349763;28;1134;-59
2023/10/15 00:43:55;;;;;;;15.77;13.60;;;20.10;64.20;;;;;;349801;28;884;-59
2023/10/15 00:44:09;;;;;;;19.45;14.07;;;20.10;64.10;;;;;;349777;28;1893;-58
2023/10/15 00:44:20;;;;;;;19.50;14.07;;;20.20;64.20;;;;;;349758;28;1123;-59
2023/10/15 00:44:31;;;;;;;16.48;13.55;;;20.10;64.00;;;;;;349878;28;1050;-59
2023/10/15 00:44:42;;;;;;;14.82;12.93;;;20.20;64.10;;;;;;349868;28;999;-58
2023/10/15 00:44:53;;;;;;;14.15;12.30;;;20.20;64.00;;;;;;349815;28;1015;-58
2023/10/15 00:45:05;;;;;;;14.57;12.65;;;20.20;64.00;;;;;;349868;28;1134;-59
2023/10/15 00:45:18;;;;;;;14.77;13.13;;;20.10;64.00;;;;;;349700;28;1178;-58
2023/10/15 00:45:35;;;;;;;14.90;13.07;;;20.10;63.90;;;;;;349773;28;1015;-58
2023/10/15 00:45:46;;;;;;;15.55;12.98;;;20.10;63.90;;;;;;349810;28;1026;-58
2023/10/15 00:45:59;;;;;;;15.48;13.40;;;20.10;63.90;;;;;;349783;28;1004;-58
2023/10/15 00:46:13;;;;;;;15.32;13.73;;;20.20;64.00;;;;;;349742;28;1018;-58
2023/10/15 00:46:28;;;;;;;15.32;13.27;;;20.20;63.90;;;;;;349783;28;1141;-58
2023/10/15 00:46:39;;;;;;;16.52;13.23;;;20.20;64.00;;;;;;349790;28;987;-58
2023/10/15 00:46:56;;;;;;;17.33;13.82;;;20.20;63.90;;;;;;349861;28;1023;-59
2023/10/15 00:47:15;;;;;;;17.17;13.60;;;20.10;63.90;;;;;;349756;28;1118;-59
2023/10/15 00:47:26;;;;;;;17.35;13.68;;;20.20;63.90;;;;;;349716;28;1034;-59
2023/10/15 00:47:37;;;;;;;17.15;13.95;;;20.10;63.80;;;;;;349737;28;1425;-59
2023/10/15 00:48:02;;;;;;;15.93;13.77;;;20.10;63.80;;;;;;349702;28;1146;-59
2023/10/15 00:48:51;;;;;;;16.23;13.68;;;20.20;63.90;;;;;;349731;28;1062;-58
2023/10/15 00:49:09;;;;;;;17.42;13.88;;;20.10;63.90;;;;;;347420;28;1529;-58
2023/10/15 00:49:27;;;;;;;17.00;13.70;;;20.10;64.00;;;;;;349703;28;1043;-58
2023/10/15 00:49:38;;;;;;;16.58;14.00;;;20.10;64.00;;;;;;349700;28;1224;-58
2023/10/15 00:49:48;;;;;;;17.52;14.18;;;20.10;64.10;;;;;;349766;28;987;-58
2023/10/15 00:49:59;;;;;;;17.10;14.55;;;20.10;64.00;;;;;;349799;28;1046;-58
2023/10/15 00:50:11;;;;;;;17.98;14.32;;;20.10;64.00;;;;;;349777;28;1127;-58
2023/10/15 00:50:22;;;;;;;16.77;14.32;;;20.10;64.00;;;;;;349741;28;1012;-58
2023/10/15 00:50:38;;;;;;;16.10;14.38;;;20.10;64.00;;;;;;349842;28;888;-58
2023/10/15 00:50:51;;;;;;;15.98;14.27;;;20.10;64.00;;;;;;349709;28;957;-58
2023/10/15 00:51:11;;;;;;;16.40;14.40;;;20.10;64.00;;;;;;349775;28;927;-58
2023/10/15 00:51:22;;;;;;;19.13;14.63;;;20.10;64.10;;;;;;349719;28;971;-59
2023/10/15 00:51:33;;;;;;;18.23;14.32;;;20.10;64.10;;;;;;349783;28;1055;-58
2023/10/15 00:51:45;;;;;;;17.67;14.25;;;20.10;64.10;;;;;;349767;28;1432;-58
2023/10/15 00:52:01;;;;;;;16.40;14.23;;;20.10;64.10;;;;;;349771;28;1068;-58
2023/10/15 00:52:12;;;;;;;15.98;14.23;;;20.10;64.10;;;;;;349788;28;1114;-58
2023/10/15 00:52:29;;;;;;;15.52;13.93;;;20.10;64.00;;;;;;349804;28;1070;-58
2023/10/15 00:52:42;;;;;;;17.33;13.93;;;20.10;64.00;;;;;;349819;28;1062;-58
2023/10/15 00:52:57;;;;;;;18.77;13.55;;;20.10;63.90;;;;;;349775;28;1098;-58
2023/10/15 00:53:22;;;;;;;18.02;13.40;;;20.10;63.90;;;;;;349671;28;1138;-59
2023/10/15 00:53:33;;;;;;;18.10;13.38;;;20.10;63.90;;;;;;349734;28;991;-58
2023/10/15 00:53:50;;;;;;;18.40;13.23;;;20.10;63.90;;;;;;349700;28;1102;-58
2023/10/15 00:54:09;;;;;;;19.30;13.20;;;20.10;63.80;;;;;;349770;28;1065;-58
2023/10/15 00:54:21;;;;;;;16.40;12.88;;;20.10;63.90;;;;;;349740;28;1036;-58
2023/10/15 00:54:33;;;;;;;15.13;12.98;;;20.10;63.90;;;;;;349817;28;1044;-58
2023/10/15 00:54:45;;;;;;;17.73;13.50;;;20.10;63.80;;;;;;349715;28;1914;-59
2023/10/15 00:54:57;;;;;;;17.65;13.52;;;20.10;63.80;;;;;;349664;28;1032;-58
2023/10/15 00:55:17;;;;;;;17.60;13.27;;;20.10;63.80;;;;;;349812;28;1114;-58
2023/10/15 00:55:28;;;;;;;16.36;13.30;;;20.10;63.80;;;;;;349692;28;1551;-58
2023/10/15 00:55:42;;;;;;;16.98;13.30;;;20.10;63.80;;;;;;349808;28;1070;-59
2023/10/15 00:56:04;;;;;;;16.92;13.40;;;20.10;63.80;;;;;;349839;28;829;-58
2023/10/15 00:56:18;;;;;;;15.73;13.18;;;20.10;63.90;;;;;;349603;28;1227;-60
2023/10/15 00:56:33;;;;;;;15.32;13.40;;;20.10;63.90;;;;;;349855;28;1019;-59
2023/10/15 00:56:47;;;;;;;15.18;13.57;;;20.10;63.90;;;;;;349806;28;1858;-59
2023/10/15 00:57:15;;;;;;;15.50;13.90;;;20.10;63.90;;;;;;349751;28;1046;-59
2023/10/15 00:57:26;;;;;;;17.33;13.57;;;20.10;63.90;;;;;;349804;28;990;-58
2023/10/15 00:57:42;;;;;;;18.00;13.70;;;20.10;63.90;;;;;;349654;28;1472;-58
2023/10/15 00:57:56;;;;;;;18.23;13.63;;;20.10;63.90;;;;;;349779;28;861;-58
2023/10/15 00:58:09;;;;;;;18.02;13.80;;;20.00;63.90;;;;;;349824;28;1051;-59
2023/10/15 00:58:30;;;;;;;16.65;14.07;;;20.00;64.00;;;;;;349695;28;1472;-59
2023/10/15 00:59:19;;;;;;;15.85;14.18;;;20.00;64.10;;;;;;349771;28;1024;-59
2023/10/15 00:59:45;;;;;;;16.80;14.52;;;20.00;64.10;;;;;;349830;28;925;-59
2023/10/15 00:59:58;;;;;;;17.25;13.75;;;20.00;64.10;;;;;;349680;28;1242;-59
2023/10/15 01:00:36;;;;;;;15.95;13.60;;;20.00;64.10;;;;;;349840;28;968;-58
2023/10/15 01:00:52;;;;;;;15.45;13.68;;;20.00;64.10;;;;;;349568;28;1795;-59
2023/10/15 01:01:34;;;;;;;17.33;14.63;;;20.00;64.10;;;;;;349645;28;1115;-59
2023/10/15 01:02:03;;;;;;;17.05;15.00;;;20.00;64.10;;;;;;349842;28;999;-58
2023/10/15 01:02:21;;;;;;;18.17;14.60;;;20.00;64.10;;;;;;349691;28;1094;-56
2023/10/15 01:02:32;;;;;;;17.77;14.30;;;20.00;64.20;;;;;;349542;28;1252;-58
2023/10/15 01:02:44;;;;;;;17.33;14.60;;;20.00;64.20;;;;;;349553;28;1086;-58
2023/10/15 01:02:56;;;;;;;17.30;14.90;;;20.00;64.20;;;;;;349636;28;1606;-58
2023/10/15 01:03:07;;;;;;;16.98;14.95;;;20.00;64.20;;;;;;349713;28;1004;-58
2023/10/15 01:03:30;;;;;;;16.85;14.80;;;20.00;64.20;;;;;;349827;28;987;-58
2023/10/15 01:03:48;;;;;;;16.67;14.07;;;20.00;64.20;;;;;;349771;28;995;-58
2023/10/15 01:03:59;;;;;;;16.98;14.15;;;20.00;64.30;;;;;;349756;28;1024;-58
2023/10/15 01:04:11;;;;;;;17.63;14.18;;;19.90;64.20;;;;;;349795;28;1105;-59
2023/10/15 01:04:25;;;;;;;17.48;14.43;;;19.90;64.20;;;;;;349813;28;861;-59
2023/10/15 01:04:36;;;;;;;17.08;15.02;;;20.00;64.20;;;;;;349746;28;908;-58
2023/10/15 01:04:47;;;;;;;16.48;14.77;;;19.90;64.20;;;;;;349779;28;1146;-58
2023/10/15 01:05:00;;;;;;;16.70;14.60;;;20.00;64.30;;;;;;349776;28;1887;-58
2023/10/15 01:05:14;;;;;;;16.05;14.35;;;19.90;64.20;;;;;;349779;28;981;-58
2023/10/15 01:05:27;;;;;;;17.55;13.93;;;19.90;64.20;;;;;;349710;28;887;-59
2023/10/15 01:05:47;;;;;;;18.98;13.77;;;20.00;64.20;;;;;;349796;28;972;-61
2023/10/15 01:06:05;;;;;;;19.92;13.85;;;20.00;64.10;;;;;;349834;28;1008;-59
2023/10/15 01:06:29;;;;;;;16.75;13.60;;;19.90;64.10;;;;;;349789;28;1027;-58
2023/10/15 01:06:46;;;;;;;16.67;14.18;;;20.00;64.10;;;;;;349735;28;1050;-59
2023/10/15 01:07:00;;;;;;;18.13;14.63;;;19.90;64.10;;;;;;349772;28;1062;-59
2023/10/15 01:07:47;;;;;;;16.77;13.38;;;20.00;64.00;;;;;;349620;28;1899;-59
2023/10/15 01:08:02;;;;;;;17.55;13.70;;;19.90;64.10;;;;;;349799;28;900;-58
2023/10/15 01:08:16;;;;;;;17.48;13.95;;;19.90;64.10;;;;;;349787;28;1114;-59
2023/10/15 01:08:34;;;;;;;15.88;13.48;;;19.90;64.10;;;;;;349782;28;1000;-59
2023/10/15 01:08:46;;;;;;;18.27;13.52;;;20.00;64.00;;;;;;349785;28;1094;-58
2023/10/15 01:08:59;;;;;;;19.55;14.10;;;19.90;64.00;;;;;;349840;28;1087;-58
2023/10/15 01:09:29;;;;;;;17.27;14.25;;;20.00;64.00;;;;;;349769;28;1178;-58
2023/10/15 01:09:40;;;;;;;17.42;14.02;;;19.90;64.00;;;;;;349722;28;1142;-58
2023/10/15 01:09:51;;;;;;;17.23;14.07;;;19.90;64.00;;;;;;349745;28;1008;-60
2023/10/15 01:10:02;;;;;;;17.75;14.25;;;19.90;64.00;;;;;;349862;28;1078;-59
2023/10/15 01:10:29;;;;;;;17.63;14.48;;;19.90;64.00;;;;;;349732;28;932;-59